»·PEaware :: N728CS KAPA-KHND

N728CS :: KAPA-KHND

FLIGHT INFORMATION

Flight Status: Arrived
Operator: Privately registered:
United States
More flights under this callsign
Pilot: Chandler S. (807)
Aircraft: GULFSTREAM G-1159C GULFSTREAM 4
(GLF4)
More flights by this aircraft type
Origin: KAPA Centennial
United States
Destination: KHND Henderson
United States
More flights between these airports :: More routes between these airports
Route: ROCKI3 DVC NOOTN2
File this flight plan on PilotEdge
Remarks:
Altitude:
(Current/Filed)
40,000ft
Speed:
(Current/Filed)
300kts
Departed: 12-Oct-17 07:06 PM
Arrived: 12-Oct-17 08:42 PM
Distance/Time
Traveled:
533nm/1:36
Distance/Time
To Go:
Arrived

Flight Plot

Page will automatically refresh every two minutes.

Flight plan parsing failed; only flown route is shown


Map Options




Map Legend


Flown Route
Filed Route
Departure Airport
Arrival Airport
Navaid (VOR, NDB)
Fix

Horizontal Profiles

Position Reports

Time Latitude Longitude Heading Altitude Ground
Speed
12-Oct-17 18:55 39.568194 -104.848092 359 5890ft 0kts
12-Oct-17 18:56 39.568194 -104.848092 359 5890ft 0kts
12-Oct-17 18:57 39.568194 -104.848092 359 5890ft 0kts
12-Oct-17 18:58 39.568194 -104.848092 359 5890ft 0kts
12-Oct-17 18:59 39.568194 -104.848092 359 5890ft 0kts
12-Oct-17 19:00 39.568194 -104.848092 359 5890ft 0kts
12-Oct-17 19:01 39.568194 -104.848092 359 5890ft 0kts
12-Oct-17 19:02 39.568194 -104.848092 359 5890ft 0kts
12-Oct-17 19:03 39.568194 -104.848092 359 5890ft 0kts
12-Oct-17 19:04 39.568209 -104.848092 359 5890ft 1kts
12-Oct-17 19:05 39.568647 -104.848911 289 5890ft 0kts
12-Oct-17 19:06 39.567489 -104.849272 179 5890ft 14kts
12-Oct-17 19:07 39.562452 -104.849040 176 5890ft 12kts
12-Oct-17 19:08 39.559403 -104.848923 175 5890ft 21kts
12-Oct-17 19:09 39.556868 -104.848964 234 5890ft 0kts
12-Oct-17 19:10 39.556975 -104.850120 332 5890ft 12kts
12-Oct-17 19:11 39.603018 -104.854048 357 7280ft 252kts
12-Oct-17 19:12 39.676616 -104.863734 345 7932ft 308kts
12-Oct-17 19:13 39.729228 -104.933218 278 7964ft 326kts
12-Oct-17 19:14 39.743732 -105.044723 278 12048ft 332kts
12-Oct-17 19:15 39.721116 -105.145993 245 17411ft 303kts
12-Oct-17 19:16 39.686358 -105.244197 245 21409ft 309kts
12-Oct-17 19:17 39.650488 -105.345612 245 24967ft 318kts
12-Oct-17 19:18 39.613820 -105.448877 245 28742ft 326kts
12-Oct-17 19:19 39.575683 -105.555803 245 32501ft 333kts
12-Oct-17 19:20 39.541074 -105.664241 248 35481ft 340kts
12-Oct-17 19:21 39.508568 -105.780276 249 37674ft 353kts
12-Oct-17 19:22 39.474602 -105.902302 249 40282ft 375kts
12-Oct-17 19:23 39.438762 -106.030481 249 40315ft 385kts
12-Oct-17 19:24 39.402287 -106.160245 249 40307ft 386kts
12-Oct-17 19:25 39.365937 -106.288982 249 40303ft 386kts
12-Oct-17 19:26 39.328753 -106.419945 249 40300ft 386kts
12-Oct-17 19:27 39.291735 -106.549680 249 40296ft 386kts
12-Oct-17 19:28 39.254715 -106.678700 248 40271ft 386kts
12-Oct-17 19:29 39.196810 -106.793925 235 40221ft 389kts
12-Oct-17 19:30 39.130888 -106.902308 235 40208ft 384kts
12-Oct-17 19:31 39.064952 -107.009162 235 40205ft 379kts
12-Oct-17 19:31 39.010561 -107.097058 235 40205ft 381kts
12-Oct-17 19:33 38.932371 -107.222924 235 40211ft 391kts
12-Oct-17 19:34 38.864464 -107.331726 235 40213ft 398kts
12-Oct-17 19:34 38.806959 -107.423498 235 40179ft 397kts
12-Oct-17 19:36 38.726251 -107.551980 235 40137ft 397kts
12-Oct-17 19:37 38.657308 -107.661298 234 40145ft 397kts
12-Oct-17 19:37 38.599888 -107.752134 234 40151ft 398kts
12-Oct-17 19:38 38.530653 -107.861255 234 40150ft 397kts
12-Oct-17 19:39 38.459936 -107.969042 233 40146ft 398kts
12-Oct-17 19:40 38.388393 -108.076295 233 40144ft 398kts
12-Oct-17 19:41 38.316778 -108.183135 233 40150ft 398kts
12-Oct-17 19:42 38.245149 -108.289699 233 40163ft 398kts
12-Oct-17 19:43 38.173338 -108.396173 233 40185ft 398kts
12-Oct-17 19:44 38.101398 -108.502457 233 40160ft 398kts
12-Oct-17 19:45 38.029489 -108.608354 233 40157ft 398kts
12-Oct-17 19:46 37.959757 -108.710678 233 40174ft 399kts
12-Oct-17 19:47 37.887765 -108.816059 233 40178ft 399kts
12-Oct-17 19:48 37.817031 -108.922899 244 40178ft 393kts
12-Oct-17 19:49 37.779653 -109.052066 251 40192ft 392kts
12-Oct-17 19:50 37.746853 -109.182475 251 40190ft 390kts
12-Oct-17 19:51 37.714386 -109.312756 251 40188ft 390kts
12-Oct-17 19:52 37.681901 -109.442802 251 40185ft 390kts
12-Oct-17 19:53 37.649127 -109.573116 251 40182ft 390kts
12-Oct-17 19:54 37.616284 -109.703001 251 40199ft 390kts
12-Oct-17 19:55 37.583435 -109.832445 251 40196ft 390kts
12-Oct-17 19:56 37.550173 -109.962762 251 40193ft 390kts
12-Oct-17 19:57 37.516905 -110.092431 251 40190ft 390kts
12-Oct-17 19:58 37.483479 -110.222039 251 40181ft 390kts
12-Oct-17 19:59 37.449842 -110.351794 251 40177ft 390kts
12-Oct-17 20:00 37.416232 -110.480797 251 40143ft 390kts
12-Oct-17 20:01 37.382280 -110.610424 251 40061ft 390kts
12-Oct-17 20:02 37.348361 -110.739236 250 40049ft 390kts
12-Oct-17 20:03 37.314340 -110.867910 250 40046ft 390kts
12-Oct-17 20:04 37.280003 -110.997079 250 40044ft 389kts
12-Oct-17 20:05 37.245902 -111.124703 250 40040ft 389kts
12-Oct-17 20:06 37.211502 -111.252819 250 40037ft 389kts
12-Oct-17 20:07 37.176881 -111.380956 251 40051ft 387kts
12-Oct-17 20:08 37.142331 -111.508499 251 40049ft 387kts
12-Oct-17 20:09 37.107719 -111.635552 251 40046ft 388kts
12-Oct-17 20:10 37.072736 -111.763268 250 40065ft 393kts
12-Oct-17 20:11 37.036985 -111.893282 251 40076ft 397kts
12-Oct-17 20:12 37.000737 -112.024369 250 40095ft 403kts
12-Oct-17 20:13 36.963792 -112.157325 250 40091ft 407kts
12-Oct-17 20:14 36.926483 -112.290969 250 40135ft 408kts
12-Oct-17 20:15 36.889092 -112.424195 250 40160ft 408kts
12-Oct-17 20:16 36.851638 -112.556989 250 40158ft 408kts
12-Oct-17 20:17 36.814463 -112.688081 250 40172ft 408kts
12-Oct-17 20:18 36.776175 -112.822613 250 40170ft 408kts
12-Oct-17 20:19 36.738361 -112.954713 250 40168ft 404kts
12-Oct-17 20:20 36.701609 -113.082533 250 39182ft 386kts
12-Oct-17 20:21 36.666560 -113.203878 250 36177ft 360kts
12-Oct-17 20:22 36.633518 -113.317812 250 33225ft 352kts
12-Oct-17 20:23 36.599160 -113.430845 249 30186ft 350kts
12-Oct-17 20:24 36.564126 -113.544170 248 26893ft 354kts
12-Oct-17 20:25 36.528789 -113.657940 248 23591ft 358kts
12-Oct-17 20:26 36.492892 -113.773059 248 20331ft 360kts
12-Oct-17 20:27 36.457039 -113.887591 248 17329ft 355kts
12-Oct-17 20:28 36.421940 -113.999464 248 14617ft 346kts
12-Oct-17 20:29 36.388519 -114.105698 248 13014ft 312kts
12-Oct-17 20:30 36.356804 -114.206175 248 13012ft 313kts
12-Oct-17 20:31 36.325077 -114.306312 247 13006ft 313kts
12-Oct-17 20:33 36.207240 -114.458070 224 13007ft 313kts
12-Oct-17 20:34 36.136645 -114.518200 212 12986ft 292kts
12-Oct-17 20:36 36.066940 -114.568053 211 13006ft 291kts
12-Oct-17 20:37 35.996830 -114.617637 211 13006ft 291kts
12-Oct-17 20:38 35.933885 -114.675066 233 13020ft 289kts
12-Oct-17 20:39 35.887591 -114.756341 236 10826ft 296kts
12-Oct-17 20:40 35.841203 -114.841059 236 8312ft 307kts
12-Oct-17 20:41 35.827090 -114.936963 281 6068ft 294kts
12-Oct-17 20:42 35.853578 -115.018197 321 6024ft 257kts
12-Oct-17 20:43 35.909497 -115.073583 321 6043ft 277kts
12-Oct-17 20:44 35.975828 -115.097397 355 4533ft 207kts
12-Oct-17 20:45 36.015197 -115.114682 268 3303ft 147kts
12-Oct-17 20:46 35.988755 -115.135297 179 2688ft 133kts
12-Oct-17 20:47 35.967232 -115.136282 286 2388ft 3kts
12-Oct-17 20:48 35.971196 -115.136451 0 2388ft 19kts
12-Oct-17 20:49 35.977122 -115.136361 355 2388ft 16kts
12-Oct-17 20:50 35.978438 -115.138025 173 2388ft 0kts
12-Oct-17 20:51 35.978500 -115.138031 181 2388ft 0kts
12-Oct-17 20:52 35.978500 -115.138031 181 2388ft 0kts

Navigation Log

Ident Type
Flight plan parsing failed, navigation log unavailable